Private Wetterstation Sandau
Wetterdaten: Montag, 04.02.2013
Datum Zeit Temp. A. Feuchte A. Luftdruck Regen Wind Richtung Richtung Taupunkt Windchill
04.02.2013 00:01 1,9 C 92 % 1003,4 hPa 0,0 l/m 9,7 km/h (2 Bft) W 270 0,7 C -1,0 C
04.02.2013 00:06 1,9 C 92 % 1003,4 hPa 0,0 l/m 13,3 km/h (3 Bft) W-NW 292 0,7 C -1,8 C
04.02.2013 00:11 1,9 C 92 % 1003,4 hPa 0,5 l/m 14,4 km/h (3 Bft) W 270 0,7 C -2,0 C
04.02.2013 00:16 1,9 C 92 % 1003,4 hPa 0,0 l/m 11,5 km/h (2 Bft) W 270 0,7 C -1,4 C
04.02.2013 00:21 1,9 C 92 % 1003,4 hPa 0,0 l/m 13,7 km/h (3 Bft) W 270 0,7 C -1,8 C
04.02.2013 00:26 1,9 C 92 % 1003,4 hPa 0,0 l/m 6,1 km/h (2 Bft) W 270 0,7 C 0,1 C
04.02.2013 00:31 1,9 C 92 % 1003,4 hPa 0,5 l/m 23,4 km/h (4 Bft) W 270 0,7 C -3,3 C
04.02.2013 00:36 2,0 C 92 % 1003,4 hPa 0,0 l/m 7,9 km/h (2 Bft) W-SW 247 0,8 C -0,4 C
04.02.2013 00:41 2,1 C 92 % 1003,4 hPa 0,0 l/m 4,7 km/h (1 Bft) W-SW 247 0,9 C 0,9 C
04.02.2013 00:46 2,0 C 92 % 1003,3 hPa 0,0 l/m 23,0 km/h (4 Bft) W-SW 247 0,8 C -3,1 C
04.02.2013 00:51 2,0 C 92 % 1003,3 hPa 0,0 l/m 23,4 km/h (4 Bft) W 270 0,8 C -3,2 C
04.02.2013 00:56 2,0 C 92 % 1003,4 hPa 0,0 l/m 13,7 km/h (3 Bft) W-SW 247 0,8 C -1,7 C
04.02.2013 01:01 2,0 C 92 % 1003,4 hPa 0,0 l/m 8,3 km/h (2 Bft) W-SW 247 0,8 C -0,5 C
04.02.2013 01:06 2,0 C 92 % 1003,5 hPa 0,0 l/m 7,6 km/h (2 Bft) W 270 0,8 C -0,3 C
04.02.2013 01:11 2,1 C 92 % 1003,7 hPa 0,0 l/m 7,2 km/h (2 Bft) W 270 0,9 C -0,0 C
04.02.2013 01:16 2,1 C 92 % 1003,6 hPa 0,0 l/m 4,7 km/h (1 Bft) W 270 0,9 C 0,9 C
04.02.2013 01:21 2,1 C 92 % 1003,4 hPa 0,0 l/m 5,0 km/h (1 Bft) W-NW 292 0,9 C 0,8 C
04.02.2013 01:26 2,2 C 92 % 1003,5 hPa 0,0 l/m 10,1 km/h (2 Bft) W-NW 292 1,0 C -0,7 C
04.02.2013 01:31 2,3 C 92 % 1003,6 hPa 0,0 l/m 4,7 km/h (1 Bft) W 270 1,1 C 1,2 C
04.02.2013 01:36 2,4 C 92 % 1003,5 hPa 0,0 l/m 9,0 km/h (2 Bft) NW 315 1,2 C -0,2 C
04.02.2013 01:41 2,4 C 92 % 1003,6 hPa 0,0 l/m 5,0 km/h (1 Bft) W 270 1,2 C 1,1 C
04.02.2013 01:46 2,4 C 92 % 1003,7 hPa 0,0 l/m 6,5 km/h (2 Bft) W-NW 292 1,2 C 0,6 C
04.02.2013 01:51 2,5 C 92 % 1003,8 hPa 0,0 l/m 15,1 km/h (3 Bft) W-NW 292 1,3 C -1,4 C
04.02.2013 01:56 2,5 C 92 % 1003,5 hPa 0,0 l/m 9,7 km/h (2 Bft) NW 315 1,3 C -0,3 C
04.02.2013 02:01 2,5 C 92 % 1003,6 hPa 0,0 l/m 11,5 km/h (2 Bft) W-NW 292 1,3 C -0,7 C
04.02.2013 02:06 2,5 C 92 % 1003,8 hPa 0,0 l/m 10,4 km/h (2 Bft) W-NW 292 1,3 C -0,4 C
04.02.2013 02:11 2,4 C 92 % 1004,0 hPa 0,0 l/m 3,2 km/h (1 Bft) W 270 1,2 C 2,4 C
04.02.2013 02:16 2,4 C 92 % 1004,0 hPa 0,0 l/m 10,8 km/h (2 Bft) W 270 1,2 C -0,6 C
04.02.2013 02:21 2,4 C 92 % 1003,8 hPa 0,0 l/m 3,2 km/h (1 Bft) W-NW 292 1,2 C 2,4 C
04.02.2013 02:26 2,3 C 92 % 1004,1 hPa 0,0 l/m 10,4 km/h (2 Bft) NW 315 1,1 C -0,7 C
04.02.2013 02:31 2,3 C 92 % 1004,1 hPa 0,0 l/m 10,8 km/h (2 Bft) NW 315 1,1 C -0,8 C
04.02.2013 02:36 2,3 C 92 % 1004,2 hPa 0,0 l/m 6,1 km/h (2 Bft) W 270 1,1 C 0,6 C
04.02.2013 02:41 2,3 C 92 % 1004,2 hPa 0,0 l/m 7,2 km/h (2 Bft) W 270 1,1 C 0,2 C
04.02.2013 02:46 2,2 C 92 % 1004,0 hPa 0,0 l/m 10,4 km/h (2 Bft) NW 315 1,0 C -0,8 C
04.02.2013 02:51 2,2 C 92 % 1004,1 hPa 0,0 l/m 9,4 km/h (2 Bft) W-SW 247 1,0 C -0,5 C
04.02.2013 02:56 2,3 C 92 % 1004,2 hPa 0,0 l/m 11,2 km/h (2 Bft) W-NW 292 1,1 C -0,8 C
04.02.2013 03:01 2,3 C 92 % 1004,2 hPa 0,0 l/m 16,2 km/h (3 Bft) W-NW 292 1,1 C -1,8 C
04.02.2013 03:06 2,4 C 92 % 1004,4 hPa 0,0 l/m 14,4 km/h (3 Bft) NW 315 1,2 C -1,4 C
04.02.2013 03:11 2,5 C 92 % 1004,5 hPa 0,0 l/m 4,7 km/h (1 Bft) W 270 1,3 C 1,4 C
04.02.2013 03:16 2,6 C 92 % 1004,4 hPa 0,0 l/m 6,1 km/h (2 Bft) N-NW 337 1,4 C 0,9 C
04.02.2013 03:21 2,7 C 92 % 1004,4 hPa 0,0 l/m 15,8 km/h (3 Bft) NW 315 1,5 C -1,2 C
04.02.2013 03:26 2,7 C 92 % 1004,5 hPa 0,0 l/m 16,9 km/h (3 Bft) W-NW 292 1,5 C -1,4 C
04.02.2013 03:31 2,7 C 92 % 1004,5 hPa 0,0 l/m 7,2 km/h (2 Bft) W-NW 292 1,5 C 0,7 C
04.02.2013 03:36 2,6 C 92 % 1004,6 hPa 0,0 l/m 4,7 km/h (1 Bft) W-NW 292 1,4 C 1,5 C
04.02.2013 03:41 2,6 C 91 % 1004,6 hPa 0,0 l/m 9,0 km/h (2 Bft) W-NW 292 1,3 C 0,0 C
04.02.2013 03:46 2,4 C 91 % 1004,5 hPa 0,0 l/m 11,2 km/h (2 Bft) W-NW 292 1,1 C -0,7 C
04.02.2013 03:51 2,4 C 91 % 1004,4 hPa 0,0 l/m 10,1 km/h (2 Bft) W-NW 292 1,1 C -0,5 C
04.02.2013 03:56 2,3 C 91 % 1004,5 hPa 0,0 l/m 5,0 km/h (1 Bft) W-NW 292 1,0 C 1,0 C
04.02.2013 04:01 2,3 C 91 % 1004,5 hPa 0,0 l/m 14,0 km/h (3 Bft) NW 315 1,0 C -1,4 C
04.02.2013 04:06 2,2 C 91 % 1004,6 hPa 0,0 l/m 6,1 km/h (2 Bft) W 270 0,9 C 0,5 C
04.02.2013 04:11 2,1 C 91 % 1004,6 hPa 0,0 l/m 9,4 km/h (2 Bft) W-SW 247 0,8 C -0,7 C
04.02.2013 04:16 2,1 C 91 % 1004,7 hPa 0,0 l/m 6,5 km/h (2 Bft) W-SW 247 0,8 C 0,2 C
04.02.2013 04:21 2,1 C 91 % 1004,8 hPa 0,0 l/m 7,6 km/h (2 Bft) W-SW 247 0,8 C -0,2 C
04.02.2013 04:26 2,1 C 92 % 1004,9 hPa 0,0 l/m 7,6 km/h (2 Bft) W-SW 247 0,9 C -0,2 C
04.02.2013 04:31 2,2 C 92 % 1005,0 hPa 0,0 l/m 11,9 km/h (2 Bft) W 270 1,0 C -1,1 C
04.02.2013 04:36 2,3 C 92 % 1004,8 hPa 0,0 l/m 6,1 km/h (2 Bft) W-SW 247 1,1 C 0,6 C
04.02.2013 04:41 2,3 C 92 % 1005,0 hPa 0,0 l/m 5,8 km/h (2 Bft) W 270 1,1 C 0,7 C
04.02.2013 04:46 2,2 C 92 % 1004,9 hPa 0,0 l/m 14,4 km/h (3 Bft) W-SW 247 1,0 C -1,6 C
04.02.2013 04:51 2,1 C 92 % 1005,0 hPa 0,0 l/m 10,1 km/h (2 Bft) W 270 0,9 C -0,8 C
04.02.2013 04:56 2,1 C 92 % 1005,0 hPa 0,0 l/m 14,4 km/h (3 Bft) W-SW 247 0,9 C -1,7 C
04.02.2013 05:01 1,9 C 92 % 1005,0 hPa 0,0 l/m 11,5 km/h (2 Bft) W 270 0,7 C -1,4 C
04.02.2013 05:06 1,9 C 92 % 1005,0 hPa 0,5 l/m 11,9 km/h (2 Bft) W-SW 247 0,7 C -1,5 C
04.02.2013 05:11 1,9 C 92 % 1005,1 hPa 0,0 l/m 4,7 km/h (1 Bft) W-SW 247 0,7 C 0,7 C
04.02.2013 05:16 1,9 C 92 % 1005,0 hPa 0,0 l/m 8,3 km/h (2 Bft) W 270 0,7 C -0,6 C
04.02.2013 05:21 1,8 C 92 % 1005,0 hPa 0,0 l/m 7,6 km/h (2 Bft) W-SW 247 0,6 C -0,5 C
04.02.2013 05:26 1,8 C 92 % 1004,9 hPa 0,0 l/m 9,4 km/h (2 Bft) W-SW 247 0,6 C -1,0 C
04.02.2013 05:31 1,8 C 92 % 1004,9 hPa 0,0 l/m 9,7 km/h (2 Bft) W 270 0,6 C -1,1 C
04.02.2013 05:36 1,6 C 92 % 1004,8 hPa 0,0 l/m 7,9 km/h (2 Bft) W-SW 247 0,4 C -0,8 C
04.02.2013 05:41 1,6 C 92 % 1004,8 hPa 0,0 l/m 6,1 km/h (2 Bft) W-SW 247 0,4 C -0,2 C
04.02.2013 05:46 1,6 C 92 % 1004,8 hPa 0,0 l/m 6,1 km/h (2 Bft) W-SW 247 0,4 C -0,2 C
04.02.2013 05:51 1,6 C 92 % 1005,0 hPa 0,0 l/m 6,8 km/h (2 Bft) W-SW 247 0,4 C -0,5 C
04.02.2013 05:56 1,8 C 92 % 1004,8 hPa 0,0 l/m 6,1 km/h (2 Bft) W-SW 247 0,6 C 0,0 C
04.02.2013 06:01 1,8 C 92 % 1004,7 hPa 0,0 l/m 10,8 km/h (2 Bft) W-SW 247 0,6 C -1,4 C
04.02.2013 06:06 1,9 C 92 % 1004,7 hPa 0,0 l/m 6,1 km/h (2 Bft) W-SW 247 0,7 C 0,1 C
04.02.2013 06:11 1,9 C 92 % 1004,6 hPa 0,0 l/m 7,2 km/h (2 Bft) W 270 0,7 C -0,3 C
04.02.2013 06:16 1,9 C 92 % 1004,8 hPa 0,0 l/m 14,4 km/h (3 Bft) W-SW 247 0,7 C -2,0 C
04.02.2013 06:21 1,9 C 92 % 1004,9 hPa 0,0 l/m 8,3 km/h (2 Bft) W-SW 247 0,7 C -0,6 C
04.02.2013 06:26 1,9 C 92 % 1004,7 hPa 0,0 l/m 8,3 km/h (2 Bft) W-SW 247 0,7 C -0,6 C
04.02.2013 06:31 1,9 C 92 % 1004,6 hPa 0,0 l/m 5,8 km/h (2 Bft) S-SW 202 0,7 C 0,2 C
04.02.2013 06:36 1,9 C 92 % 1004,7 hPa 0,0 l/m 6,5 km/h (2 Bft) W-SW 247 0,7 C -0,0 C
04.02.2013 06:41 1,9 C 92 % 1004,6 hPa 0,0 l/m 5,4 km/h (1 Bft) W-SW 247 0,7 C 0,4 C
04.02.2013 06:46 1,9 C 92 % 1004,5 hPa 0,0 l/m 9,7 km/h (2 Bft) SW 225 0,7 C -1,0 C
04.02.2013 06:51 2,0 C 92 % 1004,4 hPa 0,0 l/m 4,3 km/h (1 Bft) W-SW 247 0,8 C 2,0 C
04.02.2013 06:56 1,9 C 92 % 1004,5 hPa 0,0 l/m 3,6 km/h (1 Bft) S-SW 202 0,7 C 1,9 C
04.02.2013 07:01 1,9 C 92 % 1004,5 hPa 0,0 l/m 5,0 km/h (1 Bft) SW 225 0,7 C 0,6 C
04.02.2013 07:06 2,0 C 92 % 1004,3 hPa 0,0 l/m 5,8 km/h (2 Bft) S-SW 202 0,8 C 0,4 C
04.02.2013 07:11 1,9 C 92 % 1004,3 hPa 0,0 l/m 7,6 km/h (2 Bft) SW 225 0,7 C -0,4 C
04.02.2013 07:16 2,0 C 92 % 1004,3 hPa 0,0 l/m 2,9 km/h (1 Bft) SW 225 0,8 C 2,0 C
04.02.2013 07:21 1,9 C 92 % 1004,2 hPa 0,0 l/m 2,2 km/h (1 Bft) SW 225 0,7 C 1,9 C
04.02.2013 07:26 1,9 C 92 % 1004,3 hPa 0,0 l/m 5,8 km/h (2 Bft) S 180 0,7 C 0,2 C
04.02.2013 07:31 1,9 C 92 % 1004,2 hPa 0,0 l/m 4,7 km/h (1 Bft) S 180 0,7 C 0,7 C
04.02.2013 07:36 1,9 C 92 % 1004,2 hPa 0,0 l/m 6,5 km/h (2 Bft) SW 225 0,7 C -0,0 C
04.02.2013 07:41 1,9 C 92 % 1004,3 hPa 0,0 l/m 10,1 km/h (2 Bft) S-SW 202 0,7 C -1,1 C
04.02.2013 07:46 1,9 C 92 % 1004,4 hPa 0,0 l/m 2,5 km/h (1 Bft) S-SW 202 0,7 C 1,9 C
04.02.2013 07:51 1,9 C 92 % 1004,1 hPa 0,0 l/m 3,6 km/h (1 Bft) S-SW 202 0,7 C 1,9 C
04.02.2013 07:56 1,9 C 92 % 1004,2 hPa 0,0 l/m 8,3 km/h (2 Bft) SW 225 0,7 C -0,6 C
04.02.2013 08:01 1,9 C 92 % 1004,2 hPa 0,0 l/m 7,6 km/h (2 Bft) S-SW 202 0,7 C -0,4 C
04.02.2013 08:06 1,9 C 92 % 1004,3 hPa 0,0 l/m 4,0 km/h (1 Bft) S-SO 157 0,7 C 1,9 C
04.02.2013 08:11 1,9 C 92 % 1004,1 hPa 0,0 l/m 5,8 km/h (2 Bft) SW 225 0,7 C 0,2 C
04.02.2013 08:16 1,9 C 92 % 1004,1 hPa 0,0 l/m 2,5 km/h (1 Bft) S 180 0,7 C 1,9 C
04.02.2013 08:21 1,9 C 92 % 1004,2 hPa 0,0 l/m 4,7 km/h (1 Bft) S-SW 202 0,7 C 0,7 C
04.02.2013 08:26 2,1 C 92 % 1004,1 hPa 0,0 l/m 4,0 km/h (1 Bft) S 180 0,9 C 2,1 C
04.02.2013 08:31 2,1 C 92 % 1004,2 hPa 0,0 l/m 6,8 km/h (2 Bft) W-SW 247 0,9 C 0,1 C
04.02.2013 08:36 2,1 C 93 % 1004,1 hPa 0,0 l/m 4,7 km/h (1 Bft) S-SW 202 1,1 C 0,9 C
04.02.2013 08:41 2,3 C 93 % 1004,1 hPa 0,0 l/m 10,8 km/h (2 Bft) W-SW 247 1,3 C -0,8 C
04.02.2013 08:46 2,4 C 93 % 1004,1 hPa 0,0 l/m 6,1 km/h (2 Bft) S-SW 202 1,4 C 0,7 C
04.02.2013 08:51 2,5 C 93 % 1004,0 hPa 0,0 l/m 9,7 km/h (2 Bft) W-SW 247 1,5 C -0,3 C
04.02.2013 08:56 2,6 C 93 % 1003,8 hPa 0,5 l/m 4,7 km/h (1 Bft) S-SW 202 1,6 C 1,5 C
04.02.2013 09:01 2,7 C 93 % 1004,0 hPa 0,0 l/m 5,0 km/h (1 Bft) SW 225 1,7 C 1,5 C
04.02.2013 09:06 2,8 C 93 % 1003,8 hPa 0,0 l/m 5,0 km/h (1 Bft) W-SW 247 1,8 C 1,6 C
04.02.2013 09:11 2,8 C 93 % 1003,7 hPa 0,0 l/m 11,2 km/h (2 Bft) SW 225 1,8 C -0,2 C
04.02.2013 09:16 2,9 C 93 % 1003,7 hPa 0,5 l/m 5,4 km/h (1 Bft) S 180 1,9 C 1,5 C
04.02.2013 09:21 2,9 C 93 % 1003,6 hPa 0,0 l/m 6,8 km/h (2 Bft) S-SW 202 1,9 C 1,0 C
04.02.2013 09:26 2,9 C 93 % 1003,4 hPa 0,0 l/m 7,2 km/h (2 Bft) SW 225 1,9 C 0,9 C
04.02.2013 09:31 2,9 C 93 % 1003,4 hPa 0,0 l/m 7,9 km/h (2 Bft) S-SW 202 1,9 C 0,7 C
04.02.2013 09:36 3,0 C 93 % 1003,2 hPa 0,0 l/m 6,1 km/h (2 Bft) S 180 2,0 C 1,4 C
04.02.2013 09:41 3,1 C 93 % 1003,0 hPa 0,5 l/m 8,6 km/h (2 Bft) SW 225 2,1 C 0,7 C
04.02.2013 09:46 3,2 C 93 % 1002,9 hPa 0,0 l/m 5,8 km/h (2 Bft) SW 225 2,2 C 1,7 C
04.02.2013 09:51 3,2 C 93 % 1003,0 hPa 0,0 l/m 7,2 km/h (2 Bft) SW 225 2,2 C 1,3 C
04.02.2013 09:56 3,3 C 93 % 1002,6 hPa 0,0 l/m 7,2 km/h (2 Bft) SW 225 2,3 C 1,4 C
04.02.2013 10:01 3,4 C 93 % 1002,5 hPa 0,0 l/m 6,1 km/h (2 Bft) S 180 2,4 C 1,8 C
04.02.2013 10:06 3,4 C 93 % 1002,5 hPa 0,0 l/m 8,6 km/h (2 Bft) S-SO 157 2,4 C 1,1 C
04.02.2013 10:11 3,5 C 93 % 1002,4 hPa 0,0 l/m 11,2 km/h (2 Bft) S-SW 202 2,5 C 0,6 C
04.02.2013 10:16 3,6 C 93 % 1002,3 hPa 0,5 l/m 16,2 km/h (3 Bft) W-SW 247 2,6 C -0,2 C
04.02.2013 10:21 3,6 C 93 % 1002,2 hPa 0,0 l/m 7,9 km/h (2 Bft) S-SW 202 2,6 C 1,5 C
04.02.2013 10:26 3,6 C 93 % 1002,2 hPa 0,0 l/m 20,9 km/h (4 Bft) W-SW 247 2,6 C -0,8 C
04.02.2013 10:31 3,8 C 93 % 1002,2 hPa 0,0 l/m 7,2 km/h (2 Bft) S-SW 202 2,8 C 2,0 C
04.02.2013 10:36 3,8 C 93 % 1002,1 hPa 0,0 l/m 13,3 km/h (3 Bft) W-SW 247 2,8 C 0,6 C
04.02.2013 10:41 3,8 C 93 % 1001,9 hPa 0,0 l/m 10,1 km/h (2 Bft) S-SW 202 2,8 C 1,2 C
04.02.2013 10:46 3,9 C 93 % 1001,7 hPa 0,0 l/m 23,0 km/h (4 Bft) W-SW 247 2,9 C -0,7 C
04.02.2013 10:51 3,9 C 93 % 1001,6 hPa 0,5 l/m 13,3 km/h (3 Bft) SW 225 2,9 C 0,7 C
04.02.2013 10:56 4,0 C 94 % 1001,5 hPa 0,0 l/m 15,8 km/h (3 Bft) W-SW 247 3,1 C 0,4 C
04.02.2013 11:01 4,1 C 94 % 1001,4 hPa 0,0 l/m 11,9 km/h (2 Bft) W-SW 247 3,2 C 1,2 C
04.02.2013 11:06 4,1 C 94 % 1001,4 hPa 0,0 l/m 16,9 km/h (3 Bft) SW 225 3,2 C 0,3 C
04.02.2013 11:11 4,2 C 94 % 1001,2 hPa 0,0 l/m 9,4 km/h (2 Bft) W-SW 247 3,3 C 1,8 C
04.02.2013 11:16 4,2 C 94 % 1001,2 hPa 0,0 l/m 8,6 km/h (2 Bft) S-SW 202 3,3 C 2,0 C
04.02.2013 11:21 4,3 C 94 % 1000,9 hPa 0,0 l/m 6,1 km/h (2 Bft) SW 225 3,4 C 2,9 C
04.02.2013 11:26 4,3 C 94 % 1000,9 hPa 0,5 l/m 10,1 km/h (2 Bft) S-SO 157 3,4 C 1,8 C
04.02.2013 11:31 4,3 C 94 % 1000,7 hPa 0,0 l/m 10,4 km/h (2 Bft) W-SW 247 3,4 C 1,7 C
04.02.2013 11:36 4,3 C 93 % 1000,5 hPa 0,0 l/m 20,5 km/h (4 Bft) S-SW 202 3,3 C 0,1 C
04.02.2013 11:41 4,4 C 93 % 1000,4 hPa 0,0 l/m 16,9 km/h (3 Bft) S 180 3,4 C 0,7 C
04.02.2013 11:46 4,4 C 93 % 1000,4 hPa 0,0 l/m 7,2 km/h (2 Bft) S 180 3,4 C 2,7 C
04.02.2013 11:51 4,4 C 93 % 1000,3 hPa 0,0 l/m 15,8 km/h (3 Bft) SW 225 3,4 C 0,9 C
04.02.2013 11:56 4,4 C 93 % 1000,3 hPa 0,0 l/m 13,3 km/h (3 Bft) W-SW 247 3,4 C 1,3 C
04.02.2013 12:01 4,4 C 93 % 1000,3 hPa 0,0 l/m 23,8 km/h (4 Bft) S-SW 202 3,4 C -0,1 C
04.02.2013 12:06 4,4 C 93 % 1000,2 hPa 0,0 l/m 14,8 km/h (3 Bft) S-SW 202 3,4 C 1,0 C
04.02.2013 12:11 4,4 C 93 % 1000,1 hPa 0,0 l/m 19,1 km/h (3 Bft) W-SW 247 3,4 C 0,4 C
04.02.2013 12:16 4,5 C 93 % 1000,0 hPa 0,0 l/m 11,9 km/h (2 Bft) S-SW 202 3,5 C 1,7 C
04.02.2013 12:21 4,5 C 93 % 999,9 hPa 0,5 l/m 11,9 km/h (2 Bft) W-SW 247 3,5 C 1,7 C
04.02.2013 12:26 4,6 C 93 % 999,7 hPa 0,0 l/m 19,1 km/h (3 Bft) SW 225 3,6 C 0,7 C
04.02.2013 12:31 4,6 C 93 % 999,7 hPa 0,0 l/m 36,0 km/h (5 Bft) W 270 3,6 C -1,0 C
04.02.2013 12:36 4,7 C 93 % 999,6 hPa 0,0 l/m 15,5 km/h (3 Bft) SW 225 3,7 C 1,3 C
04.02.2013 12:41 4,8 C 93 % 999,6 hPa 0,0 l/m 25,6 km/h (4 Bft) SW 225 3,8 C 0,2 C
04.02.2013 12:46 4,9 C 93 % 999,5 hPa 0,0 l/m 13,0 km/h (3 Bft) W-SW 247 3,9 C 2,0 C
04.02.2013 12:51 4,9 C 94 % 999,5 hPa 0,0 l/m 10,8 km/h (2 Bft) W 270 4,0 C 2,4 C
04.02.2013 12:56 5,0 C 94 % 999,5 hPa 0,0 l/m 9,4 km/h (2 Bft) W-SW 247 4,1 C 2,8 C
04.02.2013 13:01 5,1 C 94 % 999,4 hPa 0,0 l/m 15,1 km/h (3 Bft) W-SW 247 4,2 C 1,9 C
04.02.2013 13:06 5,3 C 94 % 999,4 hPa 0,0 l/m 16,6 km/h (3 Bft) W-SW 247 4,4 C 1,9 C
04.02.2013 13:11 5,4 C 94 % 999,3 hPa 0,0 l/m 32,0 km/h (5 Bft) W 270 4,5 C 0,4 C
04.02.2013 13:16 5,6 C 94 % 999,4 hPa 0,0 l/m 11,2 km/h (2 Bft) SW 225 4,7 C 3,1 C
04.02.2013 13:21 5,7 C 94 % 999,1 hPa 0,0 l/m 14,0 km/h (3 Bft) W 270 4,8 C 2,8 C
04.02.2013 13:26 5,8 C 94 % 999,2 hPa 0,0 l/m 23,0 km/h (4 Bft) W-SW 247 4,9 C 1,7 C
04.02.2013 13:31 6,0 C 94 % 999,2 hPa 0,0 l/m 21,2 km/h (4 Bft) W 270 5,1 C 2,2 C
04.02.2013 13:36 6,1 C 94 % 999,2 hPa 0,0 l/m 16,9 km/h (3 Bft) W-NW 292 5,2 C 2,8 C
04.02.2013 13:41 6,3 C 94 % 999,4 hPa 0,0 l/m 7,6 km/h (2 Bft) NW 315 5,4 C 4,8 C
04.02.2013 13:46 6,5 C 94 % 999,5 hPa 0,0 l/m 6,5 km/h (2 Bft) W-NW 292 5,6 C 5,3 C
04.02.2013 13:51 6,6 C 94 % 999,6 hPa 0,0 l/m 19,1 km/h (3 Bft) W-NW 292 5,7 C 3,2 C
04.02.2013 13:56 6,8 C 94 % 999,7 hPa 0,0 l/m 9,7 km/h (2 Bft) W-NW 292 5,9 C 4,9 C
04.02.2013 14:01 7,0 C 93 % 999,7 hPa 0,0 l/m 11,9 km/h (2 Bft) NW 315 5,9 C 4,7 C
04.02.2013 14:06 7,2 C 93 % 999,7 hPa 0,0 l/m 13,0 km/h (3 Bft) W 270 6,1 C 4,8 C
04.02.2013 14:11 7,3 C 92 % 999,6 hPa 0,0 l/m 8,6 km/h (2 Bft) W-NW 292 6,1 C 5,7 C
04.02.2013 14:16 7,4 C 91 % 999,8 hPa 0,0 l/m 25,2 km/h (4 Bft) NW 315 6,0 C 3,6 C
04.02.2013 14:21 7,6 C 89 % 999,7 hPa 0,0 l/m 20,9 km/h (4 Bft) W-NW 292 5,9 C 4,3 C
04.02.2013 14:26 7,8 C 86 % 999,6 hPa 0,0 l/m 17,3 km/h (3 Bft) N-NW 337 5,6 C 4,9 C
04.02.2013 14:31 7,8 C 84 % 999,7 hPa 0,0 l/m 8,3 km/h (2 Bft) W 270 5,3 C 6,4 C
04.02.2013 14:36 7,8 C 83 % 999,8 hPa 0,0 l/m 27,0 km/h (4 Bft) NW 315 5,1 C 3,9 C
04.02.2013 14:41 7,6 C 84 % 999,9 hPa 0,0 l/m 22,3 km/h (4 Bft) N-NW 337 5,1 C 4,1 C
04.02.2013 14:46 7,6 C 84 % 1000,0 hPa 0,0 l/m 11,2 km/h (2 Bft) SW 225 5,1 C 5,5 C
04.02.2013 14:51 7,5 C 83 % 1000,2 hPa 0,0 l/m 15,5 km/h (3 Bft) W-NW 292 4,8 C 4,8 C
04.02.2013 14:56 7,5 C 83 % 1000,1 hPa 0,0 l/m 25,2 km/h (4 Bft) N-NW 337 4,8 C 3,7 C
04.02.2013 15:01 7,3 C 81 % 1000,1 hPa 0,0 l/m 19,1 km/h (3 Bft) NW 315 4,3 C 4,1 C
04.02.2013 15:06 7,3 C 80 % 1000,2 hPa 0,0 l/m 23,4 km/h (4 Bft) NW 315 4,1 C 3,6 C
04.02.2013 15:11 7,1 C 80 % 1000,5 hPa 0,0 l/m 24,8 km/h (4 Bft) NW 315 3,9 C 3,2 C
04.02.2013 15:16 6,9 C 81 % 1000,4 hPa 0,0 l/m 15,8 km/h (3 Bft) W-NW 292 3,9 C 4,0 C
04.02.2013 15:21 6,8 C 82 % 1000,5 hPa 0,0 l/m 16,9 km/h (3 Bft) W-NW 292 3,9 C 3,7 C
04.02.2013 15:26 6,7 C 82 % 1000,4 hPa 0,0 l/m 14,4 km/h (3 Bft) NW 315 3,8 C 3,9 C
04.02.2013 15:31 6,6 C 82 % 1000,4 hPa 0,0 l/m 7,2 km/h (2 Bft) NW 315 3,8 C 5,2 C
04.02.2013 15:36 6,6 C 82 % 1000,5 hPa 0,0 l/m 12,2 km/h (2 Bft) W 270 3,8 C 4,2 C
04.02.2013 15:41 6,6 C 81 % 1000,6 hPa 0,0 l/m 19,8 km/h (3 Bft) N-NW 337 3,6 C 3,1 C
04.02.2013 15:46 6,6 C 80 % 1000,5 hPa 0,0 l/m 17,3 km/h (3 Bft) W-NW 292 3,4 C 3,4 C
04.02.2013 15:51 6,7 C 79 % 1000,7 hPa 0,0 l/m 16,9 km/h (3 Bft) NW 315 3,3 C 3,6 C
04.02.2013 15:56 6,8 C 79 % 1000,7 hPa 0,0 l/m 14,4 km/h (3 Bft) W-NW 292 3,4 C 4,1 C
04.02.2013 16:01 6,8 C 79 % 1001,0 hPa 0,0 l/m 23,0 km/h (4 Bft) W-NW 292 3,4 C 3,0 C
04.02.2013 16:06 6,8 C 79 % 1001,2 hPa 0,0 l/m 25,6 km/h (4 Bft) NW 315 3,4 C 2,8 C
04.02.2013 16:11 6,9 C 78 % 1001,3 hPa 0,0 l/m 16,2 km/h (3 Bft) W-NW 292 3,3 C 3,9 C
04.02.2013 16:16 6,8 C 77 % 1001,3 hPa 0,0 l/m 22,7 km/h (4 Bft) W-NW 292 3,1 C 3,1 C
04.02.2013 16:21 6,8 C 77 % 1001,4 hPa 0,0 l/m 10,1 km/h (2 Bft) W 270 3,1 C 4,8 C
04.02.2013 16:26 6,8 C 77 % 1001,5 hPa 0,0 l/m 17,3 km/h (3 Bft) W 270 3,1 C 3,7 C
04.02.2013 16:31 6,7 C 76 % 1001,6 hPa 0,0 l/m 19,1 km/h (3 Bft) W 270 2,8 C 3,3 C
04.02.2013 16:36 6,6 C 75 % 1001,6 hPa 0,0 l/m 16,6 km/h (3 Bft) W 270 2,5 C 3,5 C
04.02.2013 16:41 6,4 C 74 % 1001,6 hPa 0,0 l/m 30,6 km/h (5 Bft) NW 315 2,1 C 1,8 C
04.02.2013 16:46 6,4 C 74 % 1001,7 hPa 0,0 l/m 13,3 km/h (3 Bft) NW 315 2,1 C 3,7 C
04.02.2013 16:51 6,3 C 74 % 1001,8 hPa 0,0 l/m 11,2 km/h (2 Bft) NW 315 2,0 C 4,0 C
04.02.2013 16:56 6,2 C 75 % 1001,8 hPa 0,0 l/m 15,5 km/h (3 Bft) N 360 2,1 C 3,2 C
04.02.2013 17:01 6,2 C 75 % 1001,9 hPa 0,0 l/m 24,8 km/h (4 Bft) W-NW 292 2,1 C 2,1 C
04.02.2013 17:06 6,2 C 75 % 1001,9 hPa 0,0 l/m 16,9 km/h (3 Bft) W-NW 292 2,1 C 3,0 C
04.02.2013 17:11 6,1 C 75 % 1001,8 hPa 0,0 l/m 10,1 km/h (2 Bft) W-NW 292 2,0 C 4,0 C
04.02.2013 17:16 6,1 C 76 % 1001,9 hPa 0,0 l/m 5,4 km/h (1 Bft) W 270 2,2 C 5,2 C
04.02.2013 17:21 5,9 C 76 % 1001,9 hPa 0,0 l/m 5,4 km/h (1 Bft) W-SW 247 2,0 C 5,0 C
04.02.2013 17:26 5,9 C 77 % 1001,8 hPa 0,0 l/m 10,8 km/h (2 Bft) SW 225 2,2 C 3,6 C
04.02.2013 17:31 5,8 C 77 % 1001,9 hPa 0,0 l/m 12,6 km/h (3 Bft) W-NW 292 2,1 C 3,1 C
04.02.2013 17:36 5,8 C 76 % 1001,9 hPa 0,0 l/m 9,4 km/h (2 Bft) NW 315 1,9 C 3,7 C
04.02.2013 17:41 5,8 C 76 % 1002,1 hPa 0,0 l/m 16,2 km/h (3 Bft) NW 315 1,9 C 2,6 C
04.02.2013 17:46 5,6 C 77 % 1002,3 hPa 0,0 l/m 17,6 km/h (3 Bft) W-SW 247 1,9 C 2,1 C
04.02.2013 17:51 5,5 C 77 % 1002,3 hPa 0,0 l/m 17,6 km/h (3 Bft) W 270 1,8 C 2,0 C
04.02.2013 17:56 5,5 C 77 % 1002,3 hPa 0,0 l/m 4,7 km/h (1 Bft) NW 315 1,8 C 4,8 C
04.02.2013 18:01 5,5 C 77 % 1002,3 hPa 0,0 l/m 19,8 km/h (3 Bft) W 270 1,8 C 1,7 C
04.02.2013 18:06 5,4 C 78 % 1002,4 hPa 0,0 l/m 31,3 km/h (5 Bft) W-NW 292 1,9 C 0,5 C
04.02.2013 18:11 5,4 C 78 % 1002,5 hPa 0,0 l/m 11,9 km/h (2 Bft) W-NW 292 1,9 C 2,8 C
04.02.2013 18:16 5,3 C 78 % 1002,4 hPa 0,0 l/m 12,2 km/h (2 Bft) W-SW 247 1,8 C 2,6 C
04.02.2013 18:21 5,3 C 78 % 1002,5 hPa 0,0 l/m 9,4 km/h (2 Bft) W-SW 247 1,8 C 3,1 C
04.02.2013 18:26 5,3 C 78 % 1002,5 hPa 0,0 l/m 7,9 km/h (2 Bft) W-SW 247 1,8 C 3,5 C
04.02.2013 18:31 5,3 C 78 % 1002,6 hPa 0,0 l/m 12,6 km/h (3 Bft) W 270 1,8 C 2,5 C
04.02.2013 18:36 5,3 C 77 % 1002,6 hPa 0,0 l/m 18,7 km/h (3 Bft) W 270 1,6 C 1,6 C
04.02.2013 18:41 5,3 C 77 % 1002,7 hPa 0,0 l/m 18,7 km/h (3 Bft) W-NW 292 1,6 C 1,6 C
04.02.2013 18:46 5,3 C 78 % 1002,7 hPa 0,0 l/m 6,8 km/h (2 Bft) W-SW 247 1,8 C 3,8 C
04.02.2013 18:51 5,2 C 78 % 1002,7 hPa 0,0 l/m 10,8 km/h (2 Bft) W-SW 247 1,7 C 2,7 C
04.02.2013 18:56 5,1 C 78 % 1002,8 hPa 0,0 l/m 9,7 km/h (2 Bft) W 270 1,6 C 2,8 C
04.02.2013 19:01 4,9 C 78 % 1002,9 hPa 0,0 l/m 19,8 km/h (3 Bft) W 270 1,4 C 1,0 C
04.02.2013 19:06 4,9 C 78 % 1002,9 hPa 0,0 l/m 10,8 km/h (2 Bft) W 270 1,4 C 2,4 C
04.02.2013 19:11 4,9 C 78 % 1002,9 hPa 0,0 l/m 14,8 km/h (3 Bft) W-SW 247 1,4 C 1,7 C
04.02.2013 19:16 4,8 C 78 % 1002,8 hPa 0,0 l/m 8,6 km/h (2 Bft) W 270 1,3 C 2,7 C
04.02.2013 19:21 4,7 C 78 % 1003,1 hPa 0,0 l/m 10,1 km/h (2 Bft) W 270 1,2 C 2,3 C
04.02.2013 19:26 4,6 C 79 % 1003,1 hPa 0,0 l/m 12,6 km/h (3 Bft) W 270 1,3 C 1,7 C
04.02.2013 19:31 4,4 C 79 % 1003,2 hPa 0,0 l/m 8,6 km/h (2 Bft) S-SW 202 1,1 C 2,3 C
04.02.2013 19:36 4,4 C 79 % 1003,2 hPa 0,0 l/m 14,8 km/h (3 Bft) W 270 1,1 C 1,0 C
04.02.2013 19:41 4,4 C 80 % 1003,4 hPa 0,0 l/m 5,8 km/h (2 Bft) W 270 1,3 C 3,1 C
04.02.2013 19:46 4,4 C 80 % 1003,4 hPa 0,0 l/m 9,4 km/h (2 Bft) NW 315 1,3 C 2,1 C
04.02.2013 19:51 4,4 C 80 % 1003,4 hPa 0,0 l/m 8,6 km/h (2 Bft) SW 225 1,3 C 2,3 C
04.02.2013 19:56 4,4 C 79 % 1003,5 hPa 0,0 l/m 15,8 km/h (3 Bft) W-NW 292 1,1 C 0,9 C
04.02.2013 20:01 4,4 C 79 % 1003,5 hPa 0,0 l/m 6,1 km/h (2 Bft) W-NW 292 1,1 C 3,0 C
04.02.2013 20:06 4,4 C 79 % 1003,6 hPa 0,0 l/m 7,2 km/h (2 Bft) W 270 1,1 C 2,7 C
04.02.2013 20:11 4,4 C 78 % 1003,6 hPa 0,0 l/m 25,2 km/h (4 Bft) W 270 0,9 C -0,3 C
04.02.2013 20:16 4,4 C 78 % 1003,3 hPa 0,0 l/m 20,2 km/h (4 Bft) W 270 0,9 C 0,3 C
04.02.2013 20:21 4,5 C 78 % 1003,5 hPa 0,0 l/m 23,0 km/h (4 Bft) W 270 1,0 C 0,1 C
04.02.2013 20:26 4,4 C 79 % 1003,4 hPa 0,0 l/m 13,0 km/h (3 Bft) W-SW 247 1,1 C 1,3 C
04.02.2013 20:31 4,4 C 79 % 1003,7 hPa 0,0 l/m 11,2 km/h (2 Bft) SW 225 1,1 C 1,7 C
04.02.2013 20:36 4,4 C 79 % 1003,6 hPa 0,0 l/m 6,1 km/h (2 Bft) W-SW 247 1,1 C 3,0 C
04.02.2013 20:41 4,3 C 79 % 1003,5 hPa 0,0 l/m 14,8 km/h (3 Bft) W-SW 247 1,0 C 0,9 C
04.02.2013 20:46 4,3 C 80 % 1003,4 hPa 0,0 l/m 18,4 km/h (3 Bft) W 270 1,2 C 0,4 C
04.02.2013 20:51 4,3 C 80 % 1003,3 hPa 0,0 l/m 13,0 km/h (3 Bft) W-NW 292 1,2 C 1,2 C
04.02.2013 20:56 4,3 C 80 % 1003,4 hPa 0,0 l/m 18,7 km/h (3 Bft) W 270 1,2 C 0,4 C
04.02.2013 21:01 4,3 C 80 % 1003,3 hPa 0,0 l/m 16,9 km/h (3 Bft) W 270 1,2 C 0,6 C
04.02.2013 21:06 4,3 C 80 % 1003,3 hPa 0,0 l/m 11,5 km/h (2 Bft) W-SW 247 1,2 C 1,5 C
04.02.2013 21:11 4,2 C 79 % 1003,3 hPa 0,0 l/m 17,3 km/h (3 Bft) W-SW 247 0,9 C 0,4 C
04.02.2013 21:16 4,1 C 79 % 1003,4 hPa 0,0 l/m 15,1 km/h (3 Bft) W 270 0,8 C 0,6 C
04.02.2013 21:21 4,1 C 79 % 1003,3 hPa 0,0 l/m 8,3 km/h (2 Bft) NW 315 0,8 C 2,0 C
04.02.2013 21:26 4,1 C 80 % 1003,4 hPa 0,0 l/m 10,4 km/h (2 Bft) W-SW 247 1,0 C 1,5 C
04.02.2013 21:31 4,2 C 79 % 1003,3 hPa 0,0 l/m 13,3 km/h (3 Bft) W 270 0,9 C 1,0 C
04.02.2013 21:36 4,1 C 80 % 1003,4 hPa 0,0 l/m 23,8 km/h (4 Bft) W 270 1,0 C -0,5 C
04.02.2013 21:41 4,1 C 80 % 1003,3 hPa 0,0 l/m 18,7 km/h (3 Bft) W-SW 247 1,0 C 0,1 C
04.02.2013 21:46 4,1 C 80 % 1003,3 hPa 0,0 l/m 6,1 km/h (2 Bft) SW 225 1,0 C 2,7 C
04.02.2013 21:51 4,1 C 80 % 1003,3 hPa 0,0 l/m 16,2 km/h (3 Bft) W-NW 292 1,0 C 0,5 C
04.02.2013 21:56 4,1 C 81 % 1003,2 hPa 0,0 l/m 7,2 km/h (2 Bft) W-SW 247 1,1 C 2,3 C
04.02.2013 22:01 4,0 C 81 % 1003,3 hPa 0,0 l/m 33,1 km/h (5 Bft) W 270 1,0 C -1,5 C
04.02.2013 22:06 4,1 C 81 % 1003,2 hPa 0,0 l/m 24,8 km/h (4 Bft) W-SW 247 1,1 C -0,6 C
04.02.2013 22:11 4,1 C 81 % 1003,2 hPa 0,0 l/m 26,6 km/h (4 Bft) W 270 1,1 C -0,8 C
04.02.2013 22:16 4,1 C 81 % 1003,2 hPa 0,0 l/m 8,3 km/h (2 Bft) NW 315 1,1 C 2,0 C
04.02.2013 22:21 4,1 C 81 % 1003,2 hPa 0,0 l/m 22,0 km/h (4 Bft) W 270 1,1 C -0,3 C
04.02.2013 22:26 4,1 C 81 % 1003,2 hPa 0,0 l/m 7,9 km/h (2 Bft) W 270 1,1 C 2,1 C
04.02.2013 22:31 4,1 C 81 % 1003,1 hPa 0,0 l/m 30,6 km/h (5 Bft) W 270 1,1 C -1,2 C
04.02.2013 22:36 3,9 C 81 % 1003,0 hPa 0,0 l/m 22,3 km/h (4 Bft) W 270 0,9 C -0,6 C
04.02.2013 22:41 3,9 C 81 % 1003,0 hPa 0,0 l/m 11,5 km/h (2 Bft) W-SW 247 0,9 C 1,0 C
04.02.2013 22:46 3,9 C 82 % 1003,0 hPa 0,0 l/m 20,9 km/h (4 Bft) W 270 1,1 C -0,4 C
04.02.2013 22:51 3,8 C 82 % 1002,8 hPa 0,0 l/m 15,1 km/h (3 Bft) NW 315 1,0 C 0,3 C
04.02.2013 22:56 3,8 C 82 % 1003,1 hPa 0,0 l/m 16,6 km/h (3 Bft) W 270 1,0 C 0,0 C
04.02.2013 23:01 3,9 C 82 % 1003,1 hPa 0,0 l/m 7,2 km/h (2 Bft) W-SW 247 1,1 C 2,1 C
04.02.2013 23:06 3,9 C 82 % 1003,1 hPa 0,0 l/m 28,1 km/h (4 Bft) W-SW 247 1,1 C -1,2 C
04.02.2013 23:11 3,9 C 82 % 1002,9 hPa 0,0 l/m 16,9 km/h (3 Bft) W-SW 247 1,1 C 0,1 C
04.02.2013 23:16 3,8 C 82 % 1003,0 hPa 0,0 l/m 15,5 km/h (3 Bft) W 270 1,0 C 0,2 C
04.02.2013 23:21 3,8 C 82 % 1003,0 hPa 0,0 l/m 10,8 km/h (2 Bft) W-SW 247 1,0 C 1,0 C
04.02.2013 23:26 3,8 C 82 % 1002,9 hPa 0,0 l/m 20,9 km/h (4 Bft) W 270 1,0 C -0,6 C
04.02.2013 23:31 3,8 C 82 % 1002,9 hPa 0,0 l/m 5,8 km/h (2 Bft) W-SW 247 1,0 C 2,4 C
04.02.2013 23:36 3,8 C 82 % 1002,8 hPa 0,0 l/m 13,7 km/h (3 Bft) W 270 1,0 C 0,5 C
04.02.2013 23:41 3,8 C 81 % 1002,9 hPa 0,0 l/m 27,4 km/h (4 Bft) W 270 0,8 C -1,3 C
04.02.2013 23:46 3,8 C 81 % 1002,9 hPa 0,0 l/m 10,1 km/h (2 Bft) W-NW 292 0,8 C 1,2 C
04.02.2013 23:51 3,9 C 81 % 1003,0 hPa 0,0 l/m 8,3 km/h (2 Bft) W-SW 247 0,9 C 1,8 C
04.02.2013 23:56 3,9 C 81 % 1003,1 hPa 0,0 l/m 13,7 km/h (3 Bft) SW 225 0,9 C 0,6 C
_ Min-Zeit 05:36 16:41 13:21 - 07:21 - - 05:36 00:31
Minimum _ 1,6 C 74 % 999,1 hPa - 2,2 km/h (1 Bft) - - 0,4 C -3,3 C
_ Max-Zeit 14:26 10:56 05:11 00:11 12:31 - - 14:06 14:31
Maximum _ 7,8 C 94 % 1005,1 hPa 0,5 l/m 36,0 km/h
W (5 Bft)
- - 6,1 C 6,4 C
Durchschnitt _ 3,9 C 87 % 1002,7 hPa #5,2 l/m 12,4 km/h (3 Bft) W-SW - 1,9 C 1,2 C
(c) by David Heller